Time,TemperatureF,DewpointF,PressureIn,WindDirection,WindDirectionDegrees,WindSpeedMPH,WindSpeedGustMPH,Humidity,HourlyPrecipIn,Conditions,Clouds,dailyrainin,SolarRadiationWatts/m^2,SoftwareType,DateUTC
2013-04-09 00:00:00,26.1,15.6,31.18,North,9,3.0,9.0,64,0.00,,,0.00,0.00,VWS V14.00,2013-04-09 06:00:00,
2013-04-09 00:05:00,26.0,15.5,31.19,North,360,3.0,7.0,64,0.00,,,0.00,0.00,VWS V14.00,2013-04-09 06:05:00,
2013-04-09 00:10:00,26.0,15.5,31.19,North,355,2.0,7.0,64,0.00,,,0.00,0.00,VWS V14.00,2013-04-09 06:10:00,
2013-04-09 00:15:00,25.8,15.0,31.19,North,355,2.0,7.0,63,0.00,,,0.00,0.00,VWS V14.00,2013-04-09 06:15:00,
2013-04-09 00:20:00,25.8,15.0,31.19,North,355,4.0,4.0,63,0.00,,,0.00,0.00,VWS V14.00,2013-04-09 06:20:00,
2013-04-09 00:25:00,25.8,15.0,31.19,North,355,0.0,8.0,63,0.00,,,0.00,0.00,VWS V14.00,2013-04-09 06:25:00,
2013-04-09 00:30:00,25.7,14.9,31.20,North,355,0.0,8.0,63,0.00,,,0.00,0.00,VWS V14.00,2013-04-09 06:30:00,
2013-04-09 00:35:00,25.6,15.1,31.20,North,355,3.0,4.0,64,0.00,,,0.00,0.00,VWS V14.00,2013-04-09 06:35:00,
2013-04-09 00:40:00,25.3,14.8,31.20,North,355,0.0,6.0,64,0.00,,,0.00,0.00,VWS V14.00,2013-04-09 06:40:00,
2013-04-09 00:45:00,25.1,14.3,31.21,North,10,3.0,11.0,63,0.00,,,0.00,0.00,VWS V14.00,2013-04-09 06:45:00,
2013-04-09 00:50:00,25.2,14.4,31.21,NNW,348,2.0,4.0,63,0.00,,,0.00,0.00,VWS V14.00,2013-04-09 06:50:00,
2013-04-09 00:55:00,25.2,14.4,31.21,North,5,0.0,7.0,63,0.00,,,0.00,0.00,VWS V14.00,2013-04-09 06:55:00,
2013-04-09 01:00:00,25.1,14.3,31.21,North,5,0.0,7.0,63,0.00,,,0.00,0.00,VWS V14.00,2013-04-09 07:00:00,
2013-04-09 01:05:00,25.1,14.3,31.21,North,360,0.0,0.0,63,0.00,,,0.00,0.00,VWS V14.00,2013-04-09 07:05:00,
2013-04-09 01:10:00,25.0,14.2,31.21,North,360,0.0,0.0,63,0.00,,,0.00,0.00,VWS V14.00,2013-04-09 07:10:00,
2013-04-09 01:15:00,24.9,13.7,31.21,North,5,0.0,3.0,62,0.00,,,0.00,0.00,VWS V14.00,2013-04-09 07:15:00,
2013-04-09 01:20:00,24.7,13.9,31.22,North,5,0.0,0.0,63,0.00,,,0.00,0.00,VWS V14.00,2013-04-09 07:20:00,
2013-04-09 01:25:00,24.5,13.7,31.22,North,5,2.0,3.0,63,0.00,,,0.00,0.00,VWS V14.00,2013-04-09 07:25:00,
2013-04-09 01:30:00,24.2,13.8,31.23,North,5,1.0,3.0,64,0.00,,,0.00,0.00,VWS V14.00,2013-04-09 07:30:00,
2013-04-09 01:35:00,24.0,13.2,31.23,North,5,0.0,2.0,63,0.00,,,0.00,0.00,VWS V14.00,2013-04-09 07:35:00,
2013-04-09 01:40:00,23.9,13.1,31.23,North,360,2.0,3.0,63,0.00,,,0.00,0.00,VWS V14.00,2013-04-09 07:40:00,
2013-04-09 01:45:00,23.9,13.1,31.23,North,5,3.0,5.0,63,0.00,,,0.00,0.00,VWS V14.00,2013-04-09 07:45:00,
2013-04-09 01:50:00,23.9,13.1,31.24,North,5,0.0,0.0,63,0.00,,,0.00,0.00,VWS V14.00,2013-04-09 07:50:00,
2013-04-09 01:55:00,23.9,13.1,31.24,North,9,1.0,4.0,63,0.00,,,0.00,0.00,VWS V14.00,2013-04-09 07:55:00,
2013-04-09 02:01:00,24.0,13.2,31.24,NNE,17,2.0,6.0,63,0.00,,,0.00,0.00,VWS V14.00,2013-04-09 08:01:00,
2013-04-09 02:06:00,24.1,13.3,31.24,NNE,17,0.0,1.0,63,0.00,,,0.00,0.00,VWS V14.00,2013-04-09 08:06:00,
2013-04-09 02:11:00,24.1,13.7,31.24,NNE,17,0.0,1.0,64,0.00,,,0.00,0.00,VWS V14.00,2013-04-09 08:11:00,
2013-04-09 02:16:00,23.9,13.9,31.24,NNE,17,0.0,1.0,65,0.00,,,0.00,0.00,VWS V14.00,2013-04-09 08:16:00,
2013-04-09 02:21:00,23.9,13.1,31.24,NNE,17,0.0,0.0,63,0.00,,,0.00,0.00,VWS V14.00,2013-04-09 08:21:00,
2013-04-09 02:26:00,23.9,13.5,31.25,NNE,17,0.0,1.0,64,0.00,,,0.00,0.00,VWS V14.00,2013-04-09 08:26:00,
2013-04-09 02:31:00,23.8,13.8,31.25,NNE,17,0.0,1.0,65,0.00,,,0.00,0.00,VWS V14.00,2013-04-09 08:31:00,
2013-04-09 02:36:00,23.7,13.7,31.25,NNE,17,0.0,0.0,65,0.00,,,0.00,0.00,VWS V14.00,2013-04-09 08:36:00,
2013-04-09 02:41:00,23.7,13.3,31.25,NNE,17,0.0,2.0,64,0.00,,,0.00,0.00,VWS V14.00,2013-04-09 08:41:00,
2013-04-09 02:46:00,23.6,13.2,31.25,NNE,17,0.0,3.0,64,0.00,,,0.00,0.00,VWS V14.00,2013-04-09 08:46:00,
2013-04-09 02:51:00,23.8,12.7,31.25,NNE,17,1.0,3.0,62,0.00,,,0.00,0.00,VWS V14.00,2013-04-09 08:51:00,
2013-04-09 02:56:00,23.9,12.8,31.25,NNE,17,0.0,3.0,62,0.00,,,0.00,0.00,VWS V14.00,2013-04-09 08:56:00,
2013-04-09 03:01:00,23.9,12.8,31.25,NNE,17,0.0,3.0,62,0.00,,,0.00,0.00,VWS V14.00,2013-04-09 09:01:00,
2013-04-09 03:06:00,23.9,12.4,31.23,NNE,17,0.0,0.0,61,0.00,,,0.00,0.00,VWS V14.00,2013-04-09 09:06:00,
2013-04-09 03:11:00,23.9,12.8,31.24,NNE,17,0.0,0.0,62,0.00,,,0.00,0.00,VWS V14.00,2013-04-09 09:11:00,
2013-04-09 03:16:00,23.6,13.2,31.24,NNE,17,0.0,0.0,64,0.00,,,0.00,0.00,VWS V14.00,2013-04-09 09:16:00,
2013-04-09 03:21:00,23.4,13.4,31.24,NNE,17,0.0,0.0,65,0.00,,,0.00,0.00,VWS V14.00,2013-04-09 09:21:00,
2013-04-09 03:26:00,23.0,13.0,31.25,NNE,17,0.0,0.0,65,0.00,,,0.00,0.00,VWS V14.00,2013-04-09 09:26:00,
2013-04-09 03:32:00,22.7,13.4,31.25,NNE,17,0.0,0.0,67,0.00,,,0.00,0.00,VWS V14.00,2013-04-09 09:32:00,
2013-04-09 03:37:00,22.3,13.0,31.26,NNE,17,0.0,0.0,67,0.00,,,0.00,0.00,VWS V14.00,2013-04-09 09:37:00,
2013-04-09 03:42:00,21.7,12.8,31.26,NNE,17,0.0,0.0,68,0.00,,,0.00,0.00,VWS V14.00,2013-04-09 09:42:00,
2013-04-09 03:47:00,21.3,12.7,31.26,NNE,17,0.0,0.0,69,0.00,,,0.00,0.00,VWS V14.00,2013-04-09 09:47:00,
2013-04-09 03:52:00,21.0,12.8,31.26,NNE,17,0.0,0.0,70,0.00,,,0.00,0.00,VWS V14.00,2013-04-09 09:52:00,
2013-04-09 03:57:00,20.8,12.2,31.26,NNE,17,0.0,0.0,69,0.00,,,0.00,0.00,VWS V14.00,2013-04-09 09:57:00,
2013-04-09 04:02:00,20.7,12.1,31.27,NNE,17,0.0,0.0,69,0.00,,,0.00,0.00,VWS V14.00,2013-04-09 10:02:00,
2013-04-09 04:07:00,20.4,12.2,31.28,NNE,17,0.0,0.0,70,0.00,,,0.00,0.00,VWS V14.00,2013-04-09 10:07:00,
2013-04-09 04:12:00,20.2,12.3,31.29,NNE,17,0.0,0.0,71,0.00,,,0.00,0.00,VWS V14.00,2013-04-09 10:12:00,
2013-04-09 04:17:00,20.0,12.1,31.29,NNE,17,0.0,0.0,71,0.00,,,0.00,0.00,VWS V14.00,2013-04-09 10:17:00,
2013-04-09 04:22:00,19.7,11.8,31.29,NNE,17,0.0,0.0,71,0.00,,,0.00,0.00,VWS V14.00,2013-04-09 10:22:00,
2013-04-09 04:27:00,19.7,12.1,31.29,NNE,17,0.0,0.0,72,0.00,,,0.00,0.00,VWS V14.00,2013-04-09 10:27:00,
2013-04-09 04:32:00,19.7,12.1,31.29,NNE,17,0.0,0.0,72,0.00,,,0.00,0.00,VWS V14.00,2013-04-09 10:32:00,
2013-04-09 04:37:00,19.5,12.0,31.29,NNE,17,0.0,0.0,72,0.00,,,0.00,0.00,VWS V14.00,2013-04-09 10:37:00,
2013-04-09 04:42:00,19.3,11.8,31.30,NNE,17,0.0,0.0,72,0.00,,,0.00,0.00,VWS V14.00,2013-04-09 10:42:00,
2013-04-09 04:47:00,19.3,12.1,31.30,NNE,17,0.0,0.0,73,0.00,,,0.00,0.00,VWS V14.00,2013-04-09 10:47:00,
2013-04-09 04:52:00,19.3,12.1,31.30,NNE,17,0.0,0.0,73,0.00,,,0.00,0.00,VWS V14.00,2013-04-09 10:52:00,
2013-04-09 04:57:00,19.3,12.1,31.30,NNE,17,0.0,0.0,73,0.00,,,0.00,0.00,VWS V14.00,2013-04-09 10:57:00,
2013-04-09 05:02:00,19.4,12.2,31.30,NNE,17,0.0,0.0,73,0.00,,,0.00,0.00,VWS V14.00,2013-04-09 11:02:00,
2013-04-09 05:07:00,19.6,12.4,31.30,NNE,17,0.0,1.0,73,0.00,,,0.00,0.00,VWS V14.00,2013-04-09 11:07:00,
2013-04-09 05:12:00,19.6,12.4,31.30,NNE,17,0.0,1.0,73,0.00,,,0.00,0.00,VWS V14.00,2013-04-09 11:12:00,
2013-04-09 05:17:00,19.7,12.1,31.30,NNE,17,0.0,1.0,72,0.00,,,0.00,0.00,VWS V14.00,2013-04-09 11:17:00,
2013-04-09 05:22:00,19.7,12.1,31.30,NNE,17,0.0,0.0,72,0.00,,,0.00,0.00,VWS V14.00,2013-04-09 11:22:00,
2013-04-09 05:27:00,19.7,12.1,31.31,NNE,17,0.0,0.0,72,0.00,,,0.00,0.00,VWS V14.00,2013-04-09 11:27:00,
2013-04-09 05:32:00,19.4,11.6,31.32,NNE,17,0.0,0.0,71,0.00,,,0.00,0.00,VWS V14.00,2013-04-09 11:32:00,
2013-04-09 05:37:00,19.0,11.5,31.32,NNE,17,0.0,0.0,72,0.00,,,0.00,0.00,VWS V14.00,2013-04-09 11:37:00,
2013-04-09 05:42:00,18.7,11.5,31.32,NNE,17,0.0,0.0,73,0.00,,,0.00,0.00,VWS V14.00,2013-04-09 11:42:00,
2013-04-09 05:47:00,18.3,11.1,31.32,NNE,17,0.0,0.0,73,0.00,,,0.00,0.00,VWS V14.00,2013-04-09 11:47:00,
2013-04-09 05:52:00,18.0,11.1,31.32,NNE,17,0.0,0.0,74,0.00,,,0.00,0.00,VWS V14.00,2013-04-09 11:52:00,
2013-04-09 05:57:00,17.9,11.3,31.32,NNE,17,1.0,1.0,75,0.00,,,0.00,0.00,VWS V14.00,2013-04-09 11:57:00,
2013-04-09 06:02:00,17.8,11.2,31.32,NNE,17,0.0,2.0,75,0.00,,,0.00,0.00,VWS V14.00,2013-04-09 12:02:00,
2013-04-09 06:07:00,17.7,11.1,31.33,NNE,17,0.0,0.0,75,0.00,,,0.00,0.00,VWS V14.00,2013-04-09 12:07:00,
2013-04-09 06:12:00,17.7,11.4,31.33,NNE,17,0.0,0.0,76,0.00,,,0.00,0.00,VWS V14.00,2013-04-09 12:12:00,
2013-04-09 06:17:00,17.6,11.0,31.33,NNE,17,0.0,0.0,75,0.00,,,0.00,0.00,VWS V14.00,2013-04-09 12:17:00,
2013-04-09 06:22:00,17.5,10.9,31.34,NNE,17,0.0,0.0,75,0.00,,,0.00,0.00,VWS V14.00,2013-04-09 12:22:00,
2013-04-09 06:27:00,17.5,10.9,31.34,NNE,17,0.0,0.0,75,0.00,,,0.00,0.00,VWS V14.00,2013-04-09 12:27:00,
2013-04-09 06:32:00,17.4,10.6,31.35,NNE,17,0.0,0.0,74,0.00,,,0.00,0.00,VWS V14.00,2013-04-09 12:32:00,
2013-04-09 06:37:00,17.0,10.2,31.35,NNE,17,0.0,0.0,74,0.00,,,0.00,0.00,VWS V14.00,2013-04-09 12:37:00,
2013-04-09 06:42:00,16.8,10.3,31.35,NNE,17,0.0,0.0,75,0.00,,,0.00,0.00,VWS V14.00,2013-04-09 12:42:00,
2013-04-09 06:47:00,16.7,10.5,31.35,NNE,17,0.0,0.0,76,0.00,,,0.00,0.00,VWS V14.00,2013-04-09 12:47:00,
2013-04-09 06:52:00,16.5,10.0,31.35,NNE,17,0.0,0.0,75,0.00,,,0.00,0.00,VWS V14.00,2013-04-09 12:52:00,
2013-04-09 06:57:00,16.4,10.2,31.35,NNE,17,0.0,0.0,76,0.00,,,0.00,0.00,VWS V14.00,2013-04-09 12:57:00,
2013-04-09 07:02:00,16.7,10.8,31.36,NNE,17,0.0,0.0,77,0.00,,,0.00,0.00,VWS V14.00,2013-04-09 13:02:00,
2013-04-09 07:07:00,16.8,10.6,31.37,NNE,17,0.0,0.0,76,0.00,,,0.00,5.00,VWS V14.00,2013-04-09 13:07:00,
2013-04-09 07:12:00,17.0,10.8,31.37,NNE,17,0.0,0.0,76,0.00,,,0.00,7.00,VWS V14.00,2013-04-09 13:12:00,
2013-04-09 07:17:00,17.2,10.9,31.38,NNE,17,0.0,0.0,76,0.00,,,0.00,9.00,VWS V14.00,2013-04-09 13:17:00,
2013-04-09 07:22:00,17.3,10.8,31.38,NNE,17,0.0,0.0,75,0.00,,,0.00,11.00,VWS V14.00,2013-04-09 13:22:00,
2013-04-09 07:28:00,17.4,10.9,31.38,NNE,17,0.0,0.0,75,0.00,,,0.00,12.00,VWS V14.00,2013-04-09 13:28:00,
2013-04-09 07:33:00,17.4,10.9,31.38,NNE,17,0.0,0.0,75,0.00,,,0.00,16.00,VWS V14.00,2013-04-09 13:33:00,
2013-04-09 07:38:00,17.4,11.1,31.39,NNE,17,0.0,0.0,76,0.00,,,0.00,18.00,VWS V14.00,2013-04-09 13:38:00,
2013-04-09 07:43:00,17.7,11.4,31.39,NNE,17,0.0,0.0,76,0.00,,,0.00,19.00,VWS V14.00,2013-04-09 13:43:00,
2013-04-09 07:48:00,18.0,11.7,31.39,NNE,17,0.0,0.0,76,0.00,,,0.00,21.00,VWS V14.00,2013-04-09 13:48:00,
2013-04-09 07:53:00,18.3,11.7,31.39,NNE,17,0.0,0.0,75,0.00,,,0.00,39.00,VWS V14.00,2013-04-09 13:53:00,
2013-04-09 07:58:00,18.4,11.8,31.39,NNE,17,0.0,0.0,75,0.00,,,0.00,46.00,VWS V14.00,2013-04-09 13:58:00,
2013-04-09 08:03:00,18.6,12.0,31.38,NNE,17,0.0,0.0,75,0.00,,,0.00,60.00,VWS V14.00,2013-04-09 14:03:00,
2013-04-09 08:08:00,18.8,12.2,31.42,NNE,17,0.0,0.0,75,0.00,,,0.00,28.00,VWS V14.00,2013-04-09 14:08:00,
2013-04-09 08:13:00,19.1,12.8,31.42,NNE,17,2.0,2.0,76,0.00,,,0.00,33.00,VWS V14.00,2013-04-09 14:13:00,
2013-04-09 08:18:00,19.4,13.4,31.42,NNE,17,1.0,2.0,77,0.00,,,0.00,26.00,VWS V14.00,2013-04-09 14:18:00,
2013-04-09 08:23:00,19.7,13.4,31.41,ESE,120,1.0,4.0,76,0.00,,,0.00,32.00,VWS V14.00,2013-04-09 14:23:00,
2013-04-09 08:28:00,20.2,13.9,31.41,ESE,120,1.0,4.0,76,0.00,,,0.00,47.00,VWS V14.00,2013-04-09 14:28:00,
2013-04-09 08:33:00,20.7,14.0,31.41,ESE,120,0.0,4.0,75,0.00,,,0.00,33.00,VWS V14.00,2013-04-09 14:33:00,
2013-04-09 08:38:00,21.0,14.3,31.42,SE,132,0.0,3.0,75,0.00,,,0.00,54.00,VWS V14.00,2013-04-09 14:38:00,
2013-04-09 08:43:00,21.4,14.4,31.42,SE,132,0.0,3.0,74,0.00,,,0.00,62.00,VWS V14.00,2013-04-09 14:43:00,
2013-04-09 08:48:00,21.6,14.6,31.41,SE,142,3.0,3.0,74,0.00,,,0.00,60.00,VWS V14.00,2013-04-09 14:48:00,
2013-04-09 08:53:00,21.9,14.6,31.41,SE,142,1.0,2.0,73,0.00,,,0.00,56.00,VWS V14.00,2013-04-09 14:53:00,
2013-04-09 08:58:00,22.2,14.9,31.41,SE,142,0.0,2.0,73,0.00,,,0.00,44.00,VWS V14.00,2013-04-09 14:58:00,
2013-04-09 09:03:00,22.4,14.8,31.41,SE,142,0.0,2.0,72,0.00,,,0.00,63.00,VWS V14.00,2013-04-09 15:03:00,
2013-04-09 09:08:00,22.7,14.7,31.42,SE,142,0.0,1.0,71,0.00,,,0.00,62.00,VWS V14.00,2013-04-09 15:08:00,
2013-04-09 09:13:00,22.9,14.9,31.42,SE,142,0.0,1.0,71,0.00,,,0.00,76.00,VWS V14.00,2013-04-09 15:13:00,
2013-04-09 09:18:00,23.2,14.9,31.42,SE,142,0.0,2.0,70,0.00,,,0.00,100.00,VWS V14.00,2013-04-09 15:18:00,
2013-04-09 09:23:00,23.4,14.8,31.42,SE,142,1.0,2.0,69,0.00,,,0.00,53.00,VWS V14.00,2013-04-09 15:23:00,
2013-04-09 09:28:00,23.9,15.2,31.41,SSW,196,0.0,4.0,69,0.00,,,0.00,74.00,VWS V14.00,2013-04-09 15:28:00,
2013-04-09 09:33:00,24.2,15.2,31.41,SSW,197,0.0,4.0,68,0.00,,,0.00,67.00,VWS V14.00,2013-04-09 15:33:00,
2013-04-09 09:39:00,24.5,14.8,31.41,SSW,197,0.0,3.0,66,0.00,,,0.00,65.00,VWS V14.00,2013-04-09 15:39:00,
2013-04-09 09:44:00,24.7,15.0,31.41,SSW,196,0.0,3.0,66,0.00,,,0.00,65.00,VWS V14.00,2013-04-09 15:44:00,
2013-04-09 09:49:00,24.9,15.5,31.41,SSW,197,1.0,3.0,67,0.00,,,0.00,63.00,VWS V14.00,2013-04-09 15:49:00,
2013-04-09 09:54:00,25.3,14.8,31.41,SSW,196,0.0,3.0,64,0.00,,,0.00,102.00,VWS V14.00,2013-04-09 15:54:00,
2013-04-09 09:59:00,25.7,15.2,31.40,SSW,197,1.0,3.0,64,0.00,,,0.00,134.00,VWS V14.00,2013-04-09 15:59:00,
2013-04-09 10:04:00,26.2,15.0,31.39,South,187,0.0,5.0,62,0.00,,,0.00,188.00,VWS V14.00,2013-04-09 16:04:00,
2013-04-09 10:09:00,26.4,14.4,31.41,South,187,0.0,1.0,60,0.00,,,0.00,227.00,VWS V14.00,2013-04-09 16:09:00,
2013-04-09 10:14:00,26.9,14.5,31.40,South,186,0.0,4.0,59,0.00,,,0.00,390.00,VWS V14.00,2013-04-09 16:14:00,
2013-04-09 10:19:00,27.4,15.7,31.40,South,186,0.0,4.0,61,0.00,,,0.00,462.00,VWS V14.00,2013-04-09 16:19:00,
2013-04-09 10:24:00,27.9,14.6,31.40,South,187,0.0,3.0,57,0.00,,,0.00,563.00,VWS V14.00,2013-04-09 16:24:00,
2013-04-09 10:29:00,28.6,15.3,31.38,South,188,2.0,4.0,57,0.00,,,0.00,578.00,VWS V14.00,2013-04-09 16:29:00,
2013-04-09 10:34:00,29.3,15.1,31.39,South,188,0.0,4.0,55,0.00,,,0.00,591.00,VWS V14.00,2013-04-09 16:34:00,
2013-04-09 10:39:00,29.9,15.7,31.39,South,188,0.0,3.0,55,0.00,,,0.00,603.00,VWS V14.00,2013-04-09 16:39:00,
2013-04-09 10:44:00,30.6,15.9,31.37,South,188,0.0,3.0,54,0.00,,,0.00,615.00,VWS V14.00,2013-04-09 16:44:00,
2013-04-09 10:49:00,31.4,17.1,31.37,NNW,341,5.0,12.0,55,0.00,,,0.00,628.00,VWS V14.00,2013-04-09 16:49:00,
2013-04-09 10:54:00,32.3,17.5,31.37,NW,321,2.0,5.0,54,0.00,,,0.00,636.00,VWS V14.00,2013-04-09 16:54:00,
2013-04-09 10:59:00,32.7,17.0,31.36,NW,321,0.0,5.0,52,0.00,,,0.00,649.00,VWS V14.00,2013-04-09 16:59:00,
2013-04-09 11:04:00,33.2,17.0,31.35,NW,321,0.0,5.0,51,0.00,,,0.00,659.00,VWS V14.00,2013-04-09 17:04:00,
2013-04-09 11:09:00,33.8,16.7,31.35,NW,321,1.0,4.0,49,0.00,,,0.00,670.00,VWS V14.00,2013-04-09 17:09:00,
2013-04-09 11:14:00,34.4,17.2,31.35,NW,321,2.0,4.0,49,0.00,,,0.00,680.00,VWS V14.00,2013-04-09 17:14:00,
2013-04-09 11:19:00,34.8,16.6,31.35,NW,321,0.0,5.0,47,0.00,,,0.00,689.00,VWS V14.00,2013-04-09 17:19:00,
2013-04-09 11:24:00,35.4,16.7,31.35,NW,321,3.0,4.0,46,0.00,,,0.00,701.00,VWS V14.00,2013-04-09 17:24:00,
2013-04-09 11:29:00,35.8,16.5,31.34,NW,321,0.0,4.0,45,0.00,,,0.00,708.00,VWS V14.00,2013-04-09 17:29:00,
2013-04-09 11:34:00,36.4,17.6,31.34,NW,321,0.0,4.0,46,0.00,,,0.00,719.00,VWS V14.00,2013-04-09 17:34:00,
2013-04-09 11:39:00,37.0,16.6,31.34,NW,321,0.0,2.0,43,0.00,,,0.00,729.00,VWS V14.00,2013-04-09 17:39:00,
2013-04-09 11:44:00,37.2,17.8,31.34,NW,321,3.0,4.0,45,0.00,,,0.00,737.00,VWS V14.00,2013-04-09 17:44:00,
2013-04-09 11:49:00,37.5,17.6,31.34,NW,321,0.0,4.0,44,0.00,,,0.00,742.00,VWS V14.00,2013-04-09 17:49:00,
2013-04-09 11:54:00,37.8,16.2,31.33,NW,321,0.0,4.0,41,0.00,,,0.00,749.00,VWS V14.00,2013-04-09 17:54:00,
2013-04-09 11:59:00,38.0,17.5,31.32,NW,321,0.0,4.0,43,0.00,,,0.00,756.00,VWS V14.00,2013-04-09 17:59:00,
2013-04-09 12:04:00,38.5,17.4,31.33,NW,323,2.0,4.0,42,0.00,,,0.00,761.00,VWS V14.00,2013-04-09 18:04:00,
2013-04-09 12:09:00,38.7,17.0,31.32,NW,323,0.0,4.0,41,0.00,,,0.00,766.00,VWS V14.00,2013-04-09 18:09:00,
2013-04-09 12:14:00,39.0,16.2,31.32,NW,323,0.0,4.0,39,0.00,,,0.00,775.00,VWS V14.00,2013-04-09 18:14:00,
2013-04-09 12:19:00,39.3,18.1,31.32,NW,323,2.0,4.0,42,0.00,,,0.00,777.00,VWS V14.00,2013-04-09 18:19:00,
2013-04-09 12:24:00,39.5,17.2,31.32,NW,323,0.0,4.0,40,0.00,,,0.00,784.00,VWS V14.00,2013-04-09 18:24:00,
2013-04-09 12:30:00,39.6,17.3,31.32,NW,323,3.0,4.0,40,0.00,,,0.00,789.00,VWS V14.00,2013-04-09 18:30:00,
2013-04-09 12:35:00,39.8,16.3,31.31,NW,323,0.0,4.0,38,0.00,,,0.00,795.00,VWS V14.00,2013-04-09 18:35:00,
2013-04-09 12:40:00,40.1,17.7,31.31,NW,323,1.0,5.0,40,0.00,,,0.00,798.00,VWS V14.00,2013-04-09 18:40:00,
2013-04-09 12:45:00,40.2,17.2,31.30,NW,321,2.0,6.0,39,0.00,,,0.00,800.00,VWS V14.00,2013-04-09 18:45:00,
2013-04-09 12:50:00,40.1,17.1,31.30,NW,325,0.0,6.0,39,0.00,,,0.00,803.00,VWS V14.00,2013-04-09 18:50:00,
2013-04-09 12:55:00,40.4,17.4,31.29,NW,326,1.0,5.0,39,0.00,,,0.00,807.00,VWS V14.00,2013-04-09 18:55:00,
2013-04-09 13:00:00,40.8,19.5,31.28,NW,326,2.0,5.0,42,0.00,,,0.00,810.00,VWS V14.00,2013-04-09 19:00:00,
2013-04-09 13:05:00,40.9,19.0,31.28,NNW,334,4.0,9.0,41,0.00,,,0.00,812.00,VWS V14.00,2013-04-09 19:05:00,
2013-04-09 13:10:00,41.2,18.7,31.28,NNW,330,3.0,5.0,40,0.00,,,0.00,814.00,VWS V14.00,2013-04-09 19:10:00,
2013-04-09 13:15:00,41.6,16.6,31.27,NNW,330,3.0,5.0,36,0.00,,,0.00,817.00,VWS V14.00,2013-04-09 19:15:00,
2013-04-09 13:20:00,41.7,18.0,31.27,NW,319,5.0,5.0,38,0.00,,,0.00,819.00,VWS V14.00,2013-04-09 19:20:00,
2013-04-09 13:25:00,41.7,18.0,31.27,NW,314,0.0,6.0,38,0.00,,,0.00,821.00,VWS V14.00,2013-04-09 19:25:00,
2013-04-09 13:30:00,42.2,17.8,31.26,North,349,4.0,6.0,37,0.00,,,0.00,819.00,VWS V14.00,2013-04-09 19:30:00,
2013-04-09 13:35:00,42.4,21.0,31.26,ENE,59,0.0,0.0,42,0.00,,,0.00,819.00,VWS V14.00,2013-04-09 19:35:00,
2013-04-09 13:40:00,42.8,18.4,31.26,WNW,286,4.0,10.0,37,0.00,,,0.00,819.00,VWS V14.00,2013-04-09 19:40:00,
2013-04-09 13:45:00,42.9,19.1,31.26,NNE,26,0.0,10.0,38,0.00,,,0.00,821.00,VWS V14.00,2013-04-09 19:45:00,
2013-04-09 13:50:00,43.3,18.8,31.26,South,184,2.0,3.0,37,0.00,,,0.00,817.00,VWS V14.00,2013-04-09 19:50:00,
2013-04-09 13:55:00,44.1,20.7,31.24,East,94,1.0,4.0,39,0.00,,,0.00,819.00,VWS V14.00,2013-04-09 19:55:00,
2013-04-09 14:00:00,44.3,18.4,31.24,SW,221,2.0,4.0,35,0.00,,,0.00,814.00,VWS V14.00,2013-04-09 20:00:00,
2013-04-09 14:05:00,44.8,20.1,31.24,West,276,2.0,3.0,37,0.00,,,0.00,817.00,VWS V14.00,2013-04-09 20:05:00,
2013-04-09 14:10:00,44.8,20.8,31.24,NNW,329,4.0,6.0,38,0.00,,,0.00,812.00,VWS V14.00,2013-04-09 20:10:00,
2013-04-09 14:15:00,45.0,20.3,31.24,NNW,345,3.0,6.0,37,0.00,,,0.00,795.00,VWS V14.00,2013-04-09 20:15:00,
2013-04-09 14:20:00,45.2,21.1,31.24,North,350,3.0,4.0,38,0.00,,,0.00,807.00,VWS V14.00,2013-04-09 20:20:00,
2013-04-09 14:25:00,45.6,20.2,31.23,North,360,0.0,4.0,36,0.00,,,0.00,800.00,VWS V14.00,2013-04-09 20:25:00,
2013-04-09 14:30:00,46.3,20.8,31.23,North,360,6.0,8.0,36,0.00,,,0.00,798.00,VWS V14.00,2013-04-09 20:30:00,
2013-04-09 14:35:00,46.0,19.2,31.23,North,355,3.0,3.0,34,0.00,,,0.00,758.00,VWS V14.00,2013-04-09 20:35:00,
2013-04-09 14:40:00,46.0,19.2,31.22,WNW,294,0.0,5.0,34,0.00,,,0.00,786.00,VWS V14.00,2013-04-09 20:40:00,
2013-04-09 14:45:00,46.4,20.9,31.22,NNW,346,4.0,7.0,36,0.00,,,0.00,780.00,VWS V14.00,2013-04-09 20:45:00,
2013-04-09 14:50:00,46.9,22.0,31.22,North,360,0.0,3.0,37,0.00,,,0.00,775.00,VWS V14.00,2013-04-09 20:50:00,
2013-04-09 14:55:00,47.4,21.1,31.22,NNW,334,6.0,7.0,35,0.00,,,0.00,768.00,VWS V14.00,2013-04-09 20:55:00,
2013-04-09 15:00:00,47.4,21.8,31.21,North,351,3.0,9.0,36,0.00,,,0.00,759.00,VWS V14.00,2013-04-09 21:00:00,
2013-04-09 15:05:00,47.2,18.9,31.22,NW,307,2.0,7.0,32,0.00,,,0.00,754.00,VWS V14.00,2013-04-09 21:05:00,
2013-04-09 15:11:00,47.2,18.9,31.22,NNW,337,7.0,10.0,32,0.00,,,0.00,749.00,VWS V14.00,2013-04-09 21:11:00,
2013-04-09 15:16:00,47.1,18.0,31.22,North,355,0.0,10.0,31,0.00,,,0.00,742.00,VWS V14.00,2013-04-09 21:16:00,
2013-04-09 15:21:00,47.8,22.2,31.21,NNW,340,7.0,9.0,36,0.00,,,0.00,735.00,VWS V14.00,2013-04-09 21:21:00,
2013-04-09 15:26:00,47.7,19.3,31.21,NNW,340,8.0,14.0,32,0.00,,,0.00,726.00,VWS V14.00,2013-04-09 21:26:00,
2013-04-09 15:31:00,47.6,19.9,31.21,North,355,9.0,14.0,33,0.00,,,0.00,715.00,VWS V14.00,2013-04-09 21:31:00,
2013-04-09 15:36:00,47.4,19.8,31.21,NNW,327,5.0,5.0,33,0.00,,,0.00,708.00,VWS V14.00,2013-04-09 21:36:00,
2013-04-09 15:41:00,47.6,19.2,31.21,NW,320,1.0,6.0,32,0.00,,,0.00,700.00,VWS V14.00,2013-04-09 21:41:00,
2013-04-09 15:46:00,48.0,18.8,31.21,NNW,329,3.0,6.0,31,0.00,,,0.00,691.00,VWS V14.00,2013-04-09 21:46:00,
2013-04-09 15:51:00,48.0,18.8,31.20,NW,307,8.0,10.0,31,0.00,,,0.00,679.00,VWS V14.00,2013-04-09 21:51:00,
2013-04-09 15:56:00,47.7,18.6,31.20,NNW,337,1.0,10.0,31,0.00,,,0.00,670.00,VWS V14.00,2013-04-09 21:56:00,
2013-04-09 16:01:00,48.2,20.5,31.19,NNW,341,3.0,11.0,33,0.00,,,0.00,659.00,VWS V14.00,2013-04-09 22:01:00,
2013-04-09 16:06:00,48.4,20.6,31.19,NNW,342,2.0,3.0,33,0.00,,,0.00,647.00,VWS V14.00,2013-04-09 22:06:00,
2013-04-09 16:11:00,48.5,21.4,31.19,North,360,6.0,10.0,34,0.00,,,0.00,638.00,VWS V14.00,2013-04-09 22:11:00,
2013-04-09 16:17:00,48.7,22.3,31.18,North,355,4.0,10.0,35,0.00,,,0.00,624.00,VWS V14.00,2013-04-09 22:17:00,
2013-04-09 16:22:00,49.0,22.6,31.18,WNW,295,6.0,6.0,35,0.00,,,0.00,612.00,VWS V14.00,2013-04-09 22:22:00,
2013-04-09 16:27:00,49.2,22.0,31.18,WNW,300,4.0,6.0,34,0.00,,,0.00,601.00,VWS V14.00,2013-04-09 22:27:00,
2013-04-09 16:32:00,49.2,21.3,31.18,NW,323,6.0,10.0,33,0.00,,,0.00,589.00,VWS V14.00,2013-04-09 22:32:00,
2013-04-09 16:37:00,49.1,22.0,31.17,North,355,5.0,10.0,34,0.00,,,0.00,577.00,VWS V14.00,2013-04-09 22:37:00,
2013-04-09 16:42:00,49.0,21.2,31.17,NW,314,7.0,10.0,33,0.00,,,0.00,566.00,VWS V14.00,2013-04-09 22:42:00,
2013-04-09 16:47:00,48.9,21.8,31.17,WNW,300,5.0,14.0,34,0.00,,,0.00,552.00,VWS V14.00,2013-04-09 22:47:00,
2013-04-09 16:52:00,49.1,23.3,31.17,WNW,288,1.0,4.0,36,0.00,,,0.00,540.00,VWS V14.00,2013-04-09 22:52:00,
2013-04-09 16:57:00,49.2,22.0,31.17,North,355,4.0,7.0,34,0.00,,,0.00,526.00,VWS V14.00,2013-04-09 22:57:00,
2013-04-09 17:02:00,49.1,21.3,31.17,North,355,0.0,8.0,33,0.00,,,0.00,512.00,VWS V14.00,2013-04-09 23:02:00,
2013-04-09 17:07:00,49.2,20.6,31.17,NNW,327,3.0,7.0,32,0.00,,,0.00,501.00,VWS V14.00,2013-04-09 23:07:00,
2013-04-09 17:12:00,49.2,22.7,31.18,NNW,333,6.0,10.0,35,0.00,,,0.00,489.00,VWS V14.00,2013-04-09 23:12:00,
2013-04-09 17:17:00,49.1,21.3,31.17,NW,314,9.0,11.0,33,0.00,,,0.00,473.00,VWS V14.00,2013-04-09 23:17:00,
2013-04-09 17:22:00,49.0,22.6,31.18,NNW,329,9.0,10.0,35,0.00,,,0.00,459.00,VWS V14.00,2013-04-09 23:22:00,
2013-04-09 17:27:00,49.0,21.9,31.18,WNW,295,6.0,10.0,34,0.00,,,0.00,445.00,VWS V14.00,2013-04-09 23:27:00,
2013-04-09 17:32:00,49.2,23.4,31.17,North,360,7.0,11.0,36,0.00,,,0.00,431.00,VWS V14.00,2013-04-09 23:32:00,
2013-04-09 17:37:00,49.2,21.3,31.18,NNW,340,4.0,6.0,33,0.00,,,0.00,415.00,VWS V14.00,2013-04-09 23:37:00,
2013-04-09 17:42:00,49.2,22.0,31.18,NNW,338,6.0,7.0,34,0.00,,,0.00,392.00,VWS V14.00,2013-04-09 23:42:00,
2013-04-09 17:47:00,49.3,21.4,31.18,NNW,336,4.0,10.0,33,0.00,,,0.00,378.00,VWS V14.00,2013-04-09 23:47:00,
2013-04-09 17:52:00,49.3,21.4,31.17,NNW,348,5.0,9.0,33,0.00,,,0.00,367.00,VWS V14.00,2013-04-09 23:52:00,
2013-04-09 17:57:00,49.2,21.3,31.17,NNW,348,2.0,9.0,33,0.00,,,0.00,353.00,VWS V14.00,2013-04-09 23:57:00,
2013-04-09 18:02:00,49.4,22.9,31.17,NNW,348,6.0,9.0,35,0.00,,,0.00,339.00,VWS V14.00,2013-04-10 00:02:00,
2013-04-09 18:07:00,49.5,22.3,31.17,North,9,5.0,6.0,34,0.00,,,0.00,323.00,VWS V14.00,2013-04-10 00:07:00,
2013-04-09 18:12:00,49.6,22.4,31.17,North,9,2.0,6.0,34,0.00,,,0.00,313.00,VWS V14.00,2013-04-10 00:12:00,
2013-04-09 18:17:00,49.7,21.8,31.17,NNW,333,7.0,10.0,33,0.00,,,0.00,297.00,VWS V14.00,2013-04-10 00:17:00,
2013-04-09 18:22:00,49.7,22.5,31.17,North,360,7.0,12.0,34,0.00,,,0.00,281.00,VWS V14.00,2013-04-10 00:22:00,
2013-04-09 18:27:00,49.6,22.4,31.17,North,5,5.0,12.0,34,0.00,,,0.00,265.00,VWS V14.00,2013-04-10 00:27:00,
2013-04-09 18:32:00,49.5,22.3,31.18,NNW,336,10.0,12.0,34,0.00,,,0.00,251.00,VWS V14.00,2013-04-10 00:32:00,
2013-04-09 18:37:00,49.3,22.1,31.18,NNW,340,10.0,12.0,34,0.00,,,0.00,237.00,VWS V14.00,2013-04-10 00:37:00,
2013-04-09 18:42:00,49.2,22.0,31.18,NNW,336,5.0,12.0,34,0.00,,,0.00,223.00,VWS V14.00,2013-04-10 00:42:00,
2013-04-09 18:47:00,48.9,21.1,31.18,NNW,338,7.0,12.0,33,0.00,,,0.00,207.00,VWS V14.00,2013-04-10 00:47:00,
2013-04-09 18:52:00,48.6,21.5,31.17,NNW,338,11.0,12.0,34,0.00,,,0.00,193.00,VWS V14.00,2013-04-10 00:52:00,
2013-04-09 18:57:00,48.3,22.6,31.18,NNW,333,7.0,13.0,36,0.00,,,0.00,179.00,VWS V14.00,2013-04-10 00:57:00,
2013-04-09 19:02:00,48.2,21.9,31.18,NNW,338,6.0,13.0,35,0.00,,,0.00,165.00,VWS V14.00,2013-04-10 01:02:00,
2013-04-09 19:07:00,48.0,22.3,31.17,NNW,336,6.0,10.0,36,0.00,,,0.00,151.00,VWS V14.00,2013-04-10 01:07:00,
2013-04-09 19:12:00,47.8,22.2,31.17,NNW,336,8.0,11.0,36,0.00,,,0.00,137.00,VWS V14.00,2013-04-10 01:12:00,
2013-04-09 19:17:00,47.5,21.9,31.17,NNW,338,6.0,11.0,36,0.00,,,0.00,125.00,VWS V14.00,2013-04-10 01:17:00,
2013-04-09 19:22:00,47.3,22.4,31.17,NNW,328,6.0,10.0,37,0.00,,,0.00,111.00,VWS V14.00,2013-04-10 01:22:00,
2013-04-09 19:27:00,47.0,22.7,31.17,NNW,327,6.0,10.0,38,0.00,,,0.00,95.00,VWS V14.00,2013-04-10 01:27:00,
2013-04-09 19:32:00,46.7,22.5,31.17,NNW,331,6.0,10.0,38,0.00,,,0.00,26.00,VWS V14.00,2013-04-10 01:32:00,
2013-04-09 19:37:00,46.1,22.5,31.18,NNW,331,5.0,6.0,39,0.00,,,0.00,51.00,VWS V14.00,2013-04-10 01:37:00,
2013-04-09 19:42:00,45.6,22.7,31.18,NNW,337,3.0,7.0,40,0.00,,,0.00,51.00,VWS V14.00,2013-04-10 01:42:00,
2013-04-09 19:48:00,45.2,22.9,31.18,NNW,337,0.0,7.0,41,0.00,,,0.00,39.00,VWS V14.00,2013-04-10 01:48:00,
2013-04-09 19:53:00,44.9,22.6,31.18,NNW,337,2.0,4.0,41,0.00,,,0.00,16.00,VWS V14.00,2013-04-10 01:53:00,
2013-04-09 19:58:00,44.2,22.6,31.19,NNW,337,3.0,4.0,42,0.00,,,0.00,11.00,VWS V14.00,2013-04-10 01:58:00,
2013-04-09 20:03:00,43.6,22.6,31.19,NNW,337,3.0,4.0,43,0.00,,,0.00,7.00,VWS V14.00,2013-04-10 02:03:00,
2013-04-09 20:08:00,43.1,22.1,31.17,NNW,337,2.0,3.0,43,0.00,,,0.00,5.00,VWS V14.00,2013-04-10 02:08:00,
2013-04-09 20:13:00,42.7,21.2,31.17,NNW,337,2.0,3.0,42,0.00,,,0.00,0.00,VWS V14.00,2013-04-10 02:13:00,
2013-04-09 20:18:00,42.5,22.1,31.17,NNW,337,0.0,3.0,44,0.00,,,0.00,0.00,VWS V14.00,2013-04-10 02:18:00,
2013-04-09 20:23:00,42.2,21.9,31.19,NNW,337,0.0,1.0,44,0.00,,,0.00,0.00,VWS V14.00,2013-04-10 02:23:00,
2013-04-09 20:28:00,42.0,21.7,31.19,NNW,337,0.0,3.0,44,0.00,,,0.00,0.00,VWS V14.00,2013-04-10 02:28:00,
2013-04-09 20:33:00,41.8,21.5,31.19,NNW,337,0.0,3.0,44,0.00,,,0.00,0.00,VWS V14.00,2013-04-10 02:33:00,
2013-04-09 20:38:00,41.5,21.2,31.19,NNW,337,0.0,3.0,44,0.00,,,0.00,0.00,VWS V14.00,2013-04-10 02:38:00,
2013-04-09 20:43:00,41.3,21.0,31.19,NNW,337,0.0,3.0,44,0.00,,,0.00,0.00,VWS V14.00,2013-04-10 02:43:00,
2013-04-09 20:48:00,41.1,20.9,31.19,NNW,337,0.0,3.0,44,0.00,,,0.00,0.00,VWS V14.00,2013-04-10 02:48:00,
2013-04-09 20:53:00,40.9,21.2,31.20,NNW,337,0.0,0.0,45,0.00,,,0.00,0.00,VWS V14.00,2013-04-10 02:53:00,
2013-04-09 20:58:00,40.7,21.0,31.19,NNW,337,0.0,0.0,45,0.00,,,0.00,0.00,VWS V14.00,2013-04-10 02:58:00,
2013-04-09 21:03:00,40.5,20.9,31.19,NNW,337,0.0,0.0,45,0.00,,,0.00,0.00,VWS V14.00,2013-04-10 03:03:00,
2013-04-09 21:08:00,40.3,20.7,31.18,NNW,337,0.0,0.0,45,0.00,,,0.00,0.00,VWS V14.00,2013-04-10 03:08:00,
2013-04-09 21:13:00,40.1,20.5,31.18,NNW,337,0.0,0.0,45,0.00,,,0.00,0.00,VWS V14.00,2013-04-10 03:13:00,
2013-04-09 21:18:00,40.0,20.9,31.19,NNW,337,0.0,0.0,46,0.00,,,0.00,0.00,VWS V14.00,2013-04-10 03:18:00,
2013-04-09 21:23:00,38.9,20.9,31.20,NNW,337,0.0,3.0,48,0.00,,,0.00,0.00,VWS V14.00,2013-04-10 03:23:00,
2013-04-09 21:28:00,37.3,20.9,31.21,NNW,337,0.0,3.0,51,0.00,,,0.00,0.00,VWS V14.00,2013-04-10 03:28:00,
2013-04-09 21:33:00,36.4,20.5,31.22,NNW,337,0.0,3.0,52,0.00,,,0.00,0.00,VWS V14.00,2013-04-10 03:33:00,
2013-04-09 21:38:00,36.0,20.5,31.22,NNW,337,0.0,0.0,53,0.00,,,0.00,0.00,VWS V14.00,2013-04-10 03:38:00,
2013-04-09 21:43:00,35.7,20.7,31.22,NNW,337,0.0,3.0,54,0.00,,,0.00,0.00,VWS V14.00,2013-04-10 03:43:00,
2013-04-09 21:48:00,35.5,21.0,31.22,NNW,337,0.0,3.0,55,0.00,,,0.00,0.00,VWS V14.00,2013-04-10 03:48:00,
2013-04-09 21:53:00,35.5,20.5,31.22,NNW,337,0.0,1.0,54,0.00,,,0.00,0.00,VWS V14.00,2013-04-10 03:53:00,
2013-04-09 21:58:00,35.5,20.5,31.22,NNW,337,0.0,1.0,54,0.00,,,0.00,0.00,VWS V14.00,2013-04-10 03:58:00,
2013-04-09 22:00:00,35.6,20.6,31.22,NNW,337,0.0,1.0,54,0.00,,,0.00,0.00,VWS V14.00,2013-04-10 04:00:00,
2013-04-09 22:05:00,35.8,21.2,31.22,NNW,337,0.0,0.0,55,0.00,,,0.00,0.00,VWS V14.00,2013-04-10 04:05:00,
2013-04-09 22:10:00,35.6,21.0,31.19,NNW,337,0.0,0.0,55,0.00,,,0.00,0.00,VWS V14.00,2013-04-10 04:10:00,
2013-04-09 22:15:00,35.5,21.0,31.19,NNW,337,1.0,2.0,55,0.00,,,0.00,0.00,VWS V14.00,2013-04-10 04:15:00,
2013-04-09 22:20:00,34.7,21.0,31.19,NNW,337,0.0,0.0,57,0.00,,,0.00,0.00,VWS V14.00,2013-04-10 04:20:00,
2013-04-09 22:25:00,34.0,20.4,31.20,NNW,337,0.0,3.0,57,0.00,,,0.00,0.00,VWS V14.00,2013-04-10 04:25:00,
2013-04-09 22:30:00,33.2,20.0,31.20,NNW,337,0.0,3.0,58,0.00,,,0.00,0.00,VWS V14.00,2013-04-10 04:30:00,
2013-04-09 22:35:00,32.4,20.1,31.22,NNW,337,0.0,0.0,60,0.00,,,0.00,0.00,VWS V14.00,2013-04-10 04:35:00,
2013-04-09 22:40:00,31.9,20.4,31.21,NNW,337,0.0,2.0,62,0.00,,,0.00,0.00,VWS V14.00,2013-04-10 04:40:00,
2013-04-09 22:45:00,31.4,20.3,31.22,NNW,337,1.0,2.0,63,0.00,,,0.00,0.00,VWS V14.00,2013-04-10 04:45:00,
2013-04-09 22:50:00,31.0,20.3,31.22,NNW,337,1.0,2.0,64,0.00,,,0.00,0.00,VWS V14.00,2013-04-10 04:50:00,
2013-04-09 22:55:00,30.8,20.4,31.21,NNW,337,0.0,2.0,65,0.00,,,0.00,0.00,VWS V14.00,2013-04-10 04:55:00,
2013-04-09 23:00:00,30.8,20.1,31.21,NNW,337,0.0,2.0,64,0.00,,,0.00,0.00,VWS V14.00,2013-04-10 05:00:00,
2013-04-09 23:05:00,30.7,20.0,31.21,NNW,337,0.0,0.0,64,0.00,,,0.00,0.00,VWS V14.00,2013-04-10 05:05:00,
2013-04-09 23:10:00,30.5,19.8,31.18,NNW,337,0.0,0.0,64,0.00,,,0.00,0.00,VWS V14.00,2013-04-10 05:10:00,
2013-04-09 23:15:00,30.5,19.8,31.18,NNW,337,0.0,0.0,64,0.00,,,0.00,0.00,VWS V14.00,2013-04-10 05:15:00,
2013-04-09 23:20:00,30.5,20.1,31.18,NNW,337,0.0,0.0,65,0.00,,,0.00,0.00,VWS V14.00,2013-04-10 05:20:00,
2013-04-09 23:25:00,30.6,19.9,31.18,NNW,337,0.0,0.0,64,0.00,,,0.00,0.00,VWS V14.00,2013-04-10 05:25:00,
2013-04-09 23:30:00,30.9,20.2,31.18,NNW,337,0.0,1.0,64,0.00,,,0.00,0.00,VWS V14.00,2013-04-10 05:30:00,
2013-04-09 23:35:00,31.2,20.1,31.18,NNW,337,0.0,0.0,63,0.00,,,0.00,0.00,VWS V14.00,2013-04-10 05:35:00,
2013-04-09 23:40:00,31.2,20.1,31.18,NNW,337,0.0,2.0,63,0.00,,,0.00,0.00,VWS V14.00,2013-04-10 05:40:00,
2013-04-09 23:45:00,31.2,20.1,31.17,NNW,337,1.0,2.0,63,0.00,,,0.00,0.00,VWS V14.00,2013-04-10 05:45:00,
2013-04-09 23:50:00,31.0,19.9,31.17,NNW,337,0.0,0.0,63,0.00,,,0.00,0.00,VWS V14.00,2013-04-10 05:50:00,
2013-04-09 23:55:00,31.1,20.4,31.17,NNW,337,0.0,0.0,64,0.00,,,0.00,0.00,VWS V14.00,2013-04-10 05:55:00,